createdAt,value
2018-05-24T00:00:02.638Z,46.43
2018-05-24T00:01:08.395Z,46.42
2018-05-24T00:02:14.147Z,46.44
2018-05-24T00:03:19.899Z,46.60
2018-05-24T00:04:25.651Z,46.57
2018-05-24T00:05:31.439Z,46.60
2018-05-24T00:06:37.208Z,46.59
2018-05-24T00:07:42.967Z,46.72
2018-05-24T00:08:48.732Z,46.80
2018-05-24T00:09:54.487Z,46.80
2018-05-24T00:11:01.032Z,46.79
2018-05-24T00:12:06.827Z,46.82
2018-05-24T00:13:12.608Z,46.83
2018-05-24T00:14:18.361Z,46.87
2018-05-24T00:15:23.788Z,46.93
2018-05-24T00:16:29.560Z,46.94
2018-05-24T00:17:36.088Z,46.93
2018-05-24T00:18:41.849Z,47.00
2018-05-24T00:19:48.383Z,47.02
2018-05-24T00:20:54.135Z,47.01
2018-05-24T00:21:59.920Z,47.06
2018-05-24T00:23:05.691Z,46.95
2018-05-24T00:24:11.471Z,46.93
2018-05-24T00:25:18.004Z,46.86
2018-05-24T00:26:23.768Z,46.84
2018-05-24T00:27:29.547Z,46.82
2018-05-24T00:28:35.303Z,46.83
2018-05-24T00:29:41.051Z,46.84
2018-05-24T00:30:46.809Z,46.88
2018-05-24T00:31:52.574Z,46.81
2018-05-24T00:32:58.350Z,46.78
2018-05-24T00:34:04.115Z,46.70
2018-05-24T00:35:09.868Z,46.81
2018-05-24T00:36:15.622Z,46.68
2018-05-24T00:37:21.388Z,46.66
2018-05-24T00:38:27.925Z,46.66
2018-05-24T00:39:33.683Z,46.54
2018-05-24T00:40:40.199Z,46.47
2018-05-24T00:41:45.972Z,46.42
2018-05-24T00:42:51.731Z,46.40
2018-05-24T00:43:58.283Z,46.50
2018-05-24T00:45:04.065Z,46.55
2018-05-24T00:46:09.819Z,46.55
2018-05-24T00:47:15.572Z,46.50
2018-05-24T00:48:21.361Z,46.44
2018-05-24T00:49:27.125Z,46.35
2018-05-24T00:50:32.557Z,46.35
2018-05-24T00:51:39.088Z,46.39
2018-05-24T00:52:44.843Z,46.40
2018-05-24T00:53:51.387Z,46.45
2018-05-24T00:56:40.831Z,46.54
2018-05-24T00:57:46.591Z,46.57
2018-05-24T00:58:52.390Z,46.58
2018-05-24T00:59:58.156Z,46.49
2018-05-24T01:01:03.904Z,46.40
2018-05-24T01:02:09.670Z,46.36
2018-05-24T01:03:16.937Z,46.36
2018-05-24T01:04:22.716Z,46.43
2018-05-24T01:05:28.973Z,46.39
2018-05-24T01:06:34.731Z,46.37
2018-05-24T01:07:40.491Z,46.32
2018-05-24T01:08:46.311Z,46.33
2018-05-24T01:09:52.087Z,46.33
2018-05-24T01:10:57.856Z,46.38
2018-05-24T01:12:03.607Z,46.45
2018-05-24T01:13:10.127Z,46.50
2018-05-24T01:14:15.884Z,46.48
2018-05-24T01:15:21.671Z,46.51
2018-05-24T01:16:27.420Z,46.56
2018-05-24T01:17:33.183Z,46.48
2018-05-24T01:18:38.931Z,46.42
2018-05-24T01:19:44.684Z,46.45
2018-05-24T01:20:50.472Z,46.43
2018-05-24T01:21:56.229Z,46.45
2018-05-24T01:23:01.985Z,46.49
2018-05-24T01:24:07.405Z,46.57
2018-05-24T01:25:13.161Z,46.56
2018-05-24T01:26:18.606Z,46.61
2018-05-24T01:27:24.403Z,46.64
2018-05-24T01:28:30.926Z,46.58
2018-05-24T01:29:36.686Z,46.66
2018-05-24T01:30:42.449Z,46.77
2018-05-24T01:31:48.784Z,46.82
2018-05-24T01:32:54.534Z,46.83
2018-05-24T01:34:01.052Z,46.93
2018-05-24T01:35:06.806Z,47.09
2018-05-24T01:36:12.588Z,47.13
2018-05-24T01:37:35.970Z,47.13
2018-05-24T01:38:41.726Z,47.16
2018-05-24T01:39:47.466Z,47.15
2018-05-24T01:40:53.332Z,47.17
2018-05-24T01:41:59.087Z,47.30
2018-05-24T01:43:04.863Z,47.38
2018-05-24T01:44:10.616Z,47.36
2018-05-24T01:45:16.383Z,47.39
2018-05-24T01:46:22.141Z,47.41
2018-05-24T01:47:29.402Z,47.45
2018-05-24T01:48:35.182Z,47.46
2018-05-24T01:49:40.951Z,47.50
2018-05-24T01:50:46.916Z,47.53
2018-05-24T01:51:52.671Z,47.61
2018-05-24T01:52:58.451Z,47.70
2018-05-24T01:54:03.964Z,47.73
2018-05-24T01:55:09.700Z,47.75
2018-05-24T01:56:15.450Z,47.88
2018-05-24T01:57:21.199Z,47.96
2018-05-24T01:58:26.984Z,47.90
2018-05-24T01:59:32.748Z,47.93
2018-05-24T02:00:38.505Z,47.89
2018-05-24T02:01:44.251Z,47.77
2018-05-24T02:02:49.999Z,47.97
2018-05-24T02:03:55.770Z,47.92
2018-05-24T02:05:02.284Z,47.90
2018-05-24T02:06:08.032Z,47.97
2018-05-24T02:07:13.791Z,48.13
2018-05-24T02:08:19.545Z,48.38
2018-05-24T02:09:26.102Z,48.45
2018-05-24T02:10:31.846Z,48.52
2018-05-24T02:11:37.591Z,48.65
2018-05-24T02:12:44.112Z,48.74
2018-05-24T02:13:49.879Z,48.86
2018-05-24T02:14:55.635Z,48.90
2018-05-24T02:16:02.172Z,49.00
2018-05-24T02:17:07.916Z,49.08
2018-05-24T02:18:13.675Z,49.21
2018-05-24T02:19:20.204Z,49.33
2018-05-24T02:20:25.976Z,49.42
2018-05-24T02:21:32.493Z,49.47
2018-05-24T02:22:38.240Z,49.51
2018-05-24T02:23:44.018Z,49.60
2018-05-24T02:24:49.975Z,49.62
2018-05-24T02:25:56.484Z,49.72
2018-05-24T02:27:02.247Z,49.89
2018-05-24T02:28:07.990Z,49.87
2018-05-24T02:29:13.746Z,49.87
2018-05-24T02:30:19.521Z,49.91
2018-05-24T02:31:25.278Z,50.06
2018-05-24T02:32:31.018Z,50.16
2018-05-24T02:33:36.771Z,50.28
2018-05-24T02:34:42.523Z,50.31
2018-05-24T02:35:48.473Z,50.42
2018-05-24T02:36:54.299Z,50.44
2018-05-24T02:38:00.051Z,50.54
2018-05-24T02:39:05.716Z,50.51
2018-05-24T02:40:11.471Z,50.55
2018-05-24T02:41:17.239Z,50.65
2018-05-24T02:42:22.990Z,50.63
2018-05-24T02:43:28.738Z,50.73
2018-05-24T02:44:34.479Z,50.77
2018-05-24T02:45:40.229Z,50.73
2018-05-24T02:46:46.001Z,50.77
2018-05-24T02:47:51.750Z,50.80
2018-05-24T02:48:58.274Z,50.90
2018-05-24T02:50:04.024Z,50.86
2018-05-24T02:51:09.779Z,51.00
2018-05-24T02:52:15.560Z,51.04
2018-05-24T02:53:21.322Z,51.25
2018-05-24T02:54:27.097Z,51.24
2018-05-24T02:55:32.604Z,51.31
2018-05-24T02:56:38.343Z,51.35
2018-05-24T02:57:44.111Z,51.46
2018-05-24T02:58:49.873Z,51.68
2018-05-24T02:59:55.623Z,51.78
2018-05-24T03:01:02.163Z,51.84
2018-05-24T03:02:07.915Z,51.90
2018-05-24T03:03:13.692Z,51.87
2018-05-24T03:04:19.455Z,51.97
2018-05-24T03:05:25.407Z,52.20
2018-05-24T03:06:31.148Z,52.38
2018-05-24T03:07:36.903Z,52.55
2018-05-24T03:08:42.722Z,52.73
2018-05-24T03:09:48.474Z,52.91
2018-05-24T03:10:54.210Z,53.16
2018-05-24T03:12:00.019Z,53.26
2018-05-24T03:13:06.539Z,53.38
2018-05-24T03:14:12.350Z,53.53
2018-05-24T03:15:18.287Z,53.58
2018-05-24T03:16:24.047Z,53.73
2018-05-24T03:17:29.802Z,53.90
2018-05-24T03:18:35.571Z,53.88
2018-05-24T03:19:41.346Z,53.87
2018-05-24T03:20:47.094Z,53.93
2018-05-24T03:21:52.843Z,54.13
2018-05-24T03:22:58.591Z,54.09
2018-05-24T03:24:04.376Z,54.19
2018-05-24T03:25:10.151Z,54.38
2018-05-24T03:26:16.667Z,54.47
2018-05-24T03:27:22.419Z,54.63
2018-05-24T03:28:28.939Z,54.81
2018-05-24T03:29:34.691Z,55.12
2018-05-24T03:30:40.465Z,55.35
2018-05-24T03:31:46.229Z,55.53
2018-05-24T03:32:52.739Z,55.59
2018-05-24T03:33:58.491Z,55.72
2018-05-24T03:35:04.244Z,55.69
2018-05-24T03:36:10.025Z,55.86
2018-05-24T03:37:15.767Z,56.12
2018-05-24T03:38:21.523Z,56.21
2018-05-24T03:39:27.298Z,56.15
2018-05-24T03:40:33.055Z,56.22
2018-05-24T03:41:38.833Z,56.31
2018-05-24T03:42:44.575Z,56.38
2018-05-24T03:43:50.347Z,56.71
2018-05-24T03:44:56.097Z,56.78
2018-05-24T03:46:01.850Z,56.80
2018-05-24T03:47:07.636Z,56.99
2018-05-24T03:48:14.150Z,57.15
2018-05-24T03:49:19.895Z,57.31
2018-05-24T03:50:27.157Z,57.33
2018-05-24T03:51:32.981Z,57.47
2018-05-24T03:52:38.914Z,57.69
2018-05-24T03:53:44.744Z,57.81
2018-05-24T03:54:51.267Z,57.86
2018-05-24T03:55:57.027Z,57.87
2018-05-24T03:57:03.550Z,57.79
2018-05-24T03:58:09.324Z,57.87
2018-05-24T04:01:40.615Z,58.07
2018-05-24T04:03:03.171Z,58.14
2018-05-24T04:04:25.974Z,58.21
2018-05-24T04:05:32.492Z,58.12
2018-05-24T04:06:38.248Z,58.00
2018-05-24T04:07:44.015Z,58.04
2018-05-24T04:08:50.645Z,58.04
2018-05-24T04:09:56.415Z,58.00
2018-05-24T04:11:02.939Z,57.92
2018-05-24T04:12:08.691Z,57.86
2018-05-24T04:13:15.971Z,57.86
2018-05-24T04:14:21.740Z,57.91
2018-05-24T04:15:28.349Z,57.77
2018-05-24T04:16:34.114Z,57.81
2018-05-24T04:17:39.857Z,57.89
2018-05-24T04:18:45.627Z,57.69
2018-05-24T04:19:51.396Z,57.66
2018-05-24T04:20:57.160Z,57.61
2018-05-24T04:22:02.952Z,57.57
2018-05-24T04:23:10.136Z,57.51
2018-05-24T04:24:15.912Z,57.46
2018-05-24T04:25:21.715Z,57.40
2018-05-24T04:26:28.309Z,57.43
2018-05-24T04:27:34.104Z,57.42
2018-05-24T04:28:40.502Z,57.53
2018-05-24T04:29:46.265Z,57.37
2018-05-24T04:30:52.019Z,57.25
2018-05-24T04:31:58.554Z,57.14
2018-05-24T04:33:04.393Z,57.26
2018-05-24T04:34:10.315Z,57.11
2018-05-24T04:35:16.069Z,57.04
2018-05-24T04:36:21.827Z,57.05
2018-05-24T04:37:27.597Z,56.99
2018-05-24T04:38:34.859Z,56.91
2018-05-24T04:39:40.629Z,57.07
2018-05-24T04:40:47.147Z,56.96
2018-05-24T04:41:52.903Z,57.00
2018-05-24T04:42:58.664Z,57.03
2018-05-24T04:44:05.176Z,56.77
2018-05-24T04:45:10.942Z,56.75
2018-05-24T04:46:16.472Z,56.83
2018-05-24T04:47:22.233Z,56.78
2018-05-24T04:48:27.987Z,56.73
2018-05-24T04:49:33.734Z,56.63
2018-05-24T04:50:39.510Z,56.51
2018-05-24T04:51:45.280Z,56.44
2018-05-24T04:52:51.054Z,56.28
2018-05-24T04:53:56.799Z,56.13
2018-05-24T04:55:03.321Z,56.13
2018-05-24T04:56:09.094Z,56.09
2018-05-24T04:57:14.848Z,56.06
2018-05-24T04:58:21.358Z,55.96
2018-05-24T04:59:27.163Z,55.91
2018-05-24T05:00:33.679Z,55.76
2018-05-24T05:01:39.539Z,55.76
2018-05-24T05:02:45.417Z,55.86
2018-05-24T05:03:51.173Z,55.87
2018-05-24T05:04:56.923Z,55.90
2018-05-24T05:06:02.676Z,55.88
2018-05-24T05:07:08.464Z,55.86
2018-05-24T05:08:15.000Z,55.87
2018-05-24T05:09:20.750Z,55.86
2018-05-24T05:10:26.528Z,55.86
2018-05-24T05:11:32.294Z,55.90
2018-05-24T05:12:38.073Z,55.82
2018-05-24T05:13:43.847Z,55.80
2018-05-24T05:14:50.357Z,55.77
2018-05-24T05:15:56.170Z,55.86
2018-05-24T05:17:01.934Z,55.88
2018-05-24T05:18:07.707Z,56.05
2018-05-24T05:19:14.219Z,55.93
2018-05-24T05:20:19.983Z,56.02
2018-05-24T05:21:26.559Z,56.06
2018-05-24T05:22:32.195Z,56.22
2018-05-24T05:23:37.988Z,56.09
2018-05-24T05:24:43.780Z,56.00
2018-05-24T05:25:49.535Z,56.21
2018-05-24T05:26:55.064Z,56.05
2018-05-24T05:28:00.821Z,56.04
2018-05-24T05:29:07.388Z,56.10
2018-05-24T05:30:13.908Z,56.02
2018-05-24T05:31:19.748Z,56.08
2018-05-24T05:32:25.569Z,56.03
2018-05-24T05:33:31.352Z,56.11
2018-05-24T05:34:37.143Z,56.15
2018-05-24T05:35:42.894Z,56.13
2018-05-24T05:36:49.859Z,56.40
2018-05-24T05:37:55.632Z,56.41
2018-05-24T05:39:01.408Z,56.62
2018-05-24T05:40:07.951Z,56.60
2018-05-24T05:41:13.738Z,56.65
2018-05-24T05:42:20.378Z,56.43
2018-05-24T05:43:26.914Z,56.70
2018-05-24T05:44:32.666Z,56.70
2018-05-24T05:45:38.550Z,56.87
2018-05-24T05:46:44.347Z,56.78
2018-05-24T05:47:50.171Z,57.01
2018-05-24T05:48:56.000Z,57.13
2018-05-24T05:50:01.759Z,57.24
2018-05-24T05:51:07.577Z,57.75
2018-05-24T05:52:13.349Z,57.80
2018-05-24T05:53:19.103Z,58.08
2018-05-24T05:54:25.642Z,58.39
2018-05-24T05:55:31.391Z,58.52
2018-05-24T05:56:37.151Z,58.67
2018-05-24T05:57:43.662Z,59.23
2018-05-24T05:58:49.412Z,61.17
2018-05-24T05:59:55.191Z,70.28
2018-05-24T06:01:01.124Z,77.52
2018-05-24T06:02:07.484Z,81.50
2018-05-24T06:03:14.011Z,83.71
2018-05-24T06:04:19.783Z,84.39
2018-05-24T06:05:26.322Z,85.16
2018-05-24T06:06:32.086Z,85.39
2018-05-24T06:07:37.895Z,85.33
2018-05-24T06:08:43.679Z,85.62
2018-05-24T06:09:50.216Z,85.76
2018-05-24T06:10:56.029Z,85.32
2018-05-24T06:12:01.836Z,84.71
2018-05-24T06:13:07.717Z,84.31
2018-05-24T06:14:13.545Z,84.02
2018-05-24T06:15:19.659Z,83.74
2018-05-24T06:16:26.247Z,83.40
2018-05-24T06:17:32.045Z,83.22
2018-05-24T06:18:37.894Z,83.35
2018-05-24T06:19:43.693Z,82.40
2018-05-24T06:20:49.540Z,82.19
2018-05-24T06:21:55.468Z,81.99
2018-05-24T06:23:01.126Z,81.91
2018-05-24T06:24:06.997Z,82.36
2018-05-24T06:25:12.790Z,82.55
2018-05-24T06:26:18.752Z,82.51
2018-05-24T06:27:24.798Z,82.34
2018-05-24T06:28:30.675Z,82.36
2018-05-24T06:29:37.356Z,82.41
2018-05-24T06:30:43.932Z,82.32
2018-05-24T06:31:50.679Z,82.08
2018-05-24T06:32:56.456Z,81.69
2018-05-24T06:34:02.226Z,81.19
2018-05-24T06:35:08.866Z,80.96
2018-05-24T06:36:14.667Z,80.53
2018-05-24T06:37:20.603Z,80.25
2018-05-24T06:38:26.551Z,80.01
2018-05-24T06:39:32.337Z,79.91
2018-05-24T06:40:38.261Z,79.65
2018-05-24T06:41:44.182Z,79.31
2018-05-24T06:42:50.001Z,79.05
2018-05-24T06:43:55.784Z,78.88
2018-05-24T06:45:02.317Z,78.58
2018-05-24T06:46:08.139Z,78.20
2018-05-24T06:47:13.960Z,77.82
2018-05-24T06:48:19.893Z,77.74
2018-05-24T06:49:25.659Z,77.18
2018-05-24T06:50:31.446Z,76.55
2018-05-24T06:51:37.252Z,76.37
2018-05-24T06:52:43.058Z,76.21
2018-05-24T06:53:49.814Z,76.29
2018-05-24T06:54:55.839Z,76.07
2018-05-24T06:56:02.403Z,75.65
2018-05-24T06:57:08.718Z,75.39
2018-05-24T06:58:14.547Z,75.45
2018-05-24T06:59:20.333Z,75.31
2018-05-24T07:00:26.116Z,75.01
2018-05-24T07:01:31.572Z,75.12
2018-05-24T07:02:37.380Z,75.22
2018-05-24T07:03:44.090Z,74.71
2018-05-24T07:04:49.885Z,74.69
2018-05-24T07:05:56.522Z,74.43
2018-05-24T07:07:03.403Z,74.35
2018-05-24T07:08:09.996Z,74.06
2018-05-24T07:09:15.856Z,74.12
2018-05-24T07:10:21.786Z,74.18
2018-05-24T07:11:27.568Z,74.06
2018-05-24T07:12:34.275Z,73.60
2018-05-24T07:13:40.941Z,73.04
2018-05-24T07:14:47.485Z,73.08
2018-05-24T07:15:53.264Z,73.32
2018-05-24T07:16:59.040Z,73.44
2018-05-24T07:18:04.531Z,73.62
2018-05-24T07:19:10.375Z,73.54
2018-05-24T07:20:16.303Z,73.35
2018-05-24T07:21:22.995Z,73.43
2018-05-24T07:22:28.775Z,73.12
2018-05-24T07:23:34.582Z,72.94
2018-05-24T07:24:40.486Z,73.28
2018-05-24T07:25:46.511Z,73.49
2018-05-24T07:26:52.311Z,73.49
2018-05-24T07:27:58.236Z,73.39
2018-05-24T07:29:04.786Z,73.58
2018-05-24T07:30:10.771Z,74.07
2018-05-24T07:31:16.575Z,73.64
2018-05-24T07:32:22.378Z,72.92
2018-05-24T07:33:28.192Z,72.29
2018-05-24T07:34:33.999Z,71.81
2018-05-24T07:35:40.653Z,71.57
2018-05-24T07:36:46.451Z,71.43
2018-05-24T07:37:52.313Z,71.49
2018-05-24T07:38:59.013Z,71.57
2018-05-24T07:40:04.675Z,71.56
2018-05-24T07:41:10.844Z,71.69
2018-05-24T07:42:16.667Z,71.49
2018-05-24T07:43:22.439Z,71.13
2018-05-24T07:44:28.216Z,71.33
2018-05-24T07:45:34.155Z,71.19
2018-05-24T07:46:39.967Z,70.58
2018-05-24T07:47:45.761Z,69.92
2018-05-24T07:48:51.523Z,69.83
2018-05-24T07:49:57.410Z,69.71
2018-05-24T07:51:03.227Z,69.68
2018-05-24T07:52:09.189Z,69.68
2018-05-24T07:53:15.023Z,69.83
2018-05-24T07:54:20.844Z,69.20
2018-05-24T07:55:26.624Z,69.30
2018-05-24T07:56:32.403Z,69.04
2018-05-24T07:57:38.976Z,69.19
2018-05-24T07:58:45.516Z,69.08
2018-05-24T07:59:51.293Z,69.12
2018-05-24T08:00:57.069Z,68.96
2018-05-24T08:02:02.850Z,67.90
2018-05-24T08:03:08.692Z,66.68
2018-05-24T08:04:14.484Z,66.24
2018-05-24T08:05:20.481Z,66.04
2018-05-24T08:06:26.256Z,65.89
2018-05-24T08:07:32.079Z,64.83
2018-05-24T08:08:38.631Z,63.61
2018-05-24T08:09:45.170Z,62.67
2018-05-24T08:10:50.966Z,62.41
2018-05-24T08:11:56.563Z,62.05
2018-05-24T08:13:02.360Z,61.85
2018-05-24T08:14:08.134Z,62.53
2018-05-24T08:15:13.904Z,62.93
2018-05-24T08:16:20.451Z,62.76
2018-05-24T08:17:26.231Z,62.18
2018-05-24T08:18:32.801Z,61.92
2018-05-24T08:19:38.584Z,61.28
2018-05-24T08:20:44.567Z,60.53
2018-05-24T08:21:51.109Z,60.46
2018-05-24T08:22:56.897Z,60.08
2018-05-24T08:24:02.698Z,60.02
2018-05-24T08:25:08.447Z,59.79
2018-05-24T08:26:15.012Z,59.91
2018-05-24T08:27:21.764Z,59.90
2018-05-24T08:28:28.303Z,59.78
2018-05-24T08:29:34.092Z,59.75
2018-05-24T08:30:39.893Z,59.29
2018-05-24T08:31:45.737Z,58.93
2018-05-24T08:32:51.516Z,59.21
2018-05-24T08:33:58.047Z,59.05
2018-05-24T08:35:03.888Z,58.19
2018-05-24T08:36:09.844Z,57.53
2018-05-24T08:37:16.379Z,57.40
2018-05-24T08:38:22.286Z,56.75
2018-05-24T08:39:28.080Z,56.50
2018-05-24T08:40:33.880Z,56.70
2018-05-24T08:41:39.737Z,56.48
2018-05-24T08:42:45.639Z,56.15
2018-05-24T08:43:51.443Z,55.17
2018-05-24T08:44:57.232Z,54.91
2018-05-24T08:46:03.042Z,54.91
2018-05-24T08:47:08.887Z,54.68
2018-05-24T08:48:14.789Z,54.50
2018-05-24T08:49:20.560Z,54.00
2018-05-24T08:50:26.339Z,54.03
2018-05-24T08:51:32.899Z,54.10
2018-05-24T08:52:39.445Z,53.87
2018-05-24T08:53:46.019Z,53.81
2018-05-24T08:54:51.799Z,53.85
2018-05-24T08:55:57.563Z,53.43
2018-05-24T08:57:03.346Z,52.65
2018-05-24T08:58:09.120Z,52.05
2018-05-24T08:59:14.945Z,51.29
2018-05-24T09:00:20.713Z,50.41
2018-05-24T09:01:26.566Z,50.29
2018-05-24T09:02:32.512Z,50.48
2018-05-24T09:03:38.284Z,50.14
2018-05-24T09:04:44.068Z,49.91
2018-05-24T09:05:49.841Z,49.06
2018-05-24T09:06:55.633Z,48.71
2018-05-24T09:08:02.176Z,48.16
2018-05-24T09:09:08.866Z,47.73
2018-05-24T09:10:15.491Z,47.48
2018-05-24T09:11:22.040Z,47.19
2018-05-24T09:12:27.833Z,46.06
2018-05-24T09:13:33.609Z,45.30
2018-05-24T09:14:39.411Z,44.63
2018-05-24T09:15:45.191Z,44.09
2018-05-24T09:16:50.973Z,44.50
2018-05-24T09:17:57.531Z,44.79
2018-05-24T09:19:04.081Z,45.19
2018-05-24T09:20:09.894Z,45.08
2018-05-24T09:21:15.855Z,44.96
2018-05-24T09:22:21.645Z,45.02
2018-05-24T09:23:27.464Z,44.87
2018-05-24T09:24:34.029Z,44.50
2018-05-24T09:25:39.788Z,44.43
2018-05-24T09:26:45.560Z,44.45
2018-05-24T09:27:51.339Z,44.56
2018-05-24T09:28:57.148Z,44.11
2018-05-24T09:30:02.943Z,44.15
2018-05-24T09:31:08.708Z,44.14
2018-05-24T09:32:14.501Z,44.21
2018-05-24T09:33:20.302Z,43.63
2018-05-24T09:34:26.115Z,43.44
2018-05-24T09:35:32.659Z,43.16
2018-05-24T09:36:38.643Z,43.13
2018-05-24T09:37:44.645Z,43.05
2018-05-24T09:38:51.295Z,43.53
2018-05-24T09:39:57.252Z,43.33
2018-05-24T09:41:03.042Z,43.26
2018-05-24T09:42:08.884Z,43.58
2018-05-24T09:43:14.865Z,43.86
2018-05-24T09:44:20.817Z,44.11
2018-05-24T09:45:27.646Z,44.01
2018-05-24T09:46:33.694Z,43.82
2018-05-24T09:47:39.452Z,43.51
2018-05-24T09:48:45.027Z,43.57
2018-05-24T09:49:51.662Z,43.85
2018-05-24T09:50:57.462Z,44.16
2018-05-24T09:52:04.041Z,44.32
2018-05-24T09:53:09.844Z,44.13
2018-05-24T09:54:15.650Z,44.03
2018-05-24T09:55:21.483Z,43.88
2018-05-24T09:56:27.252Z,44.01
2018-05-24T09:57:33.020Z,43.80
2018-05-24T09:58:38.793Z,43.78
2018-05-24T09:59:44.554Z,43.65
2018-05-24T10:00:50.312Z,43.72
2018-05-24T10:01:56.099Z,43.78
2018-05-24T10:03:02.620Z,43.41
2018-05-24T10:04:08.389Z,43.54
2018-05-24T10:05:14.179Z,43.59
2018-05-24T10:06:19.972Z,43.45
2018-05-24T10:07:26.550Z,43.50
2018-05-24T10:08:36.267Z,43.52
2018-05-24T10:09:42.028Z,43.42
2018-05-24T10:10:48.821Z,43.31
2018-05-24T10:11:56.567Z,43.41
2018-05-24T10:13:03.112Z,43.56
2018-05-24T10:14:08.874Z,43.43
2018-05-24T10:15:15.402Z,43.22
2018-05-24T10:16:20.949Z,43.42
2018-05-24T10:17:26.824Z,43.44
2018-05-24T10:18:33.349Z,43.47
2018-05-24T10:19:39.683Z,43.42
2018-05-24T10:20:45.437Z,43.44
2018-05-24T10:21:51.208Z,43.39
2018-05-24T10:22:57.854Z,43.56
2018-05-24T10:24:04.406Z,43.64
2018-05-24T10:25:10.196Z,43.72
2018-05-24T10:26:16.076Z,43.67
2018-05-24T10:27:21.833Z,43.63
2018-05-24T10:28:27.709Z,43.71
2018-05-24T10:29:34.464Z,43.47
2018-05-24T10:30:41.063Z,43.50
2018-05-24T10:31:46.819Z,43.64
2018-05-24T10:32:52.613Z,43.84
2018-05-24T10:33:59.187Z,43.93
2018-05-24T10:35:05.874Z,43.82
2018-05-24T10:36:11.790Z,44.01
2018-05-24T10:37:18.319Z,44.23
2018-05-24T10:38:24.120Z,44.50
2018-05-24T10:39:29.955Z,44.65
2018-05-24T10:40:36.704Z,44.35
2018-05-24T10:41:43.265Z,44.15
2018-05-24T10:42:49.811Z,44.32
2018-05-24T10:43:56.434Z,44.22
2018-05-24T10:45:02.569Z,44.27
2018-05-24T10:46:08.392Z,44.47
2018-05-24T10:47:13.934Z,44.42
2018-05-24T10:48:19.744Z,44.16
2018-05-24T10:49:25.501Z,44.12
2018-05-24T10:50:32.031Z,43.75
2018-05-24T10:51:38.019Z,43.60
2018-05-24T10:52:43.860Z,43.63
2018-05-24T10:53:50.489Z,43.68
2018-05-24T10:54:56.347Z,43.46
2018-05-24T10:56:02.243Z,43.56
2018-05-24T10:57:08.316Z,43.43
2018-05-24T10:58:15.066Z,43.51
2018-05-24T10:59:21.126Z,43.49
2018-05-24T11:00:27.824Z,43.48
2018-05-24T11:01:34.730Z,43.53
2018-05-24T11:02:40.614Z,43.49
2018-05-24T11:03:46.542Z,43.53
2018-05-24T11:04:52.544Z,43.67
2018-05-24T11:05:59.325Z,43.85
2018-05-24T11:07:05.391Z,43.80
2018-05-24T11:08:11.352Z,43.63
2018-05-24T11:09:17.238Z,43.53
2018-05-24T11:10:23.169Z,43.37
2018-05-24T11:11:29.815Z,43.30
2018-05-24T11:12:36.437Z,43.45
2018-05-24T11:13:42.335Z,43.68
2018-05-24T11:14:48.972Z,43.68
2018-05-24T11:15:55.757Z,43.75
2018-05-24T11:17:01.653Z,43.63
2018-05-24T11:18:07.455Z,43.81
2018-05-24T11:19:13.232Z,43.72
2018-05-24T11:20:19.001Z,43.58
2018-05-24T11:21:24.877Z,43.50
2018-05-24T11:22:30.648Z,43.41
2018-05-24T11:23:36.445Z,43.63
2018-05-24T11:24:42.276Z,43.77
2018-05-24T11:25:48.165Z,43.68
2018-05-24T11:26:54.164Z,43.64
2018-05-24T11:27:59.992Z,43.81
2018-05-24T11:29:05.428Z,43.88
2018-05-24T11:30:11.217Z,43.93
2018-05-24T11:31:16.977Z,44.05
2018-05-24T11:32:23.267Z,43.90
2018-05-24T11:33:29.019Z,43.90
2018-05-24T11:34:34.863Z,44.00
2018-05-24T11:35:40.675Z,44.09
2018-05-24T11:36:46.460Z,44.28
2018-05-24T11:37:52.285Z,44.14
2018-05-24T11:38:58.060Z,44.21
2018-05-24T11:40:03.840Z,44.21
2018-05-24T11:41:09.624Z,43.85
2018-05-24T11:42:15.393Z,43.93
2018-05-24T11:43:21.209Z,44.09
2018-05-24T11:44:27.875Z,44.15
2018-05-24T11:45:34.142Z,43.76
2018-05-24T11:46:39.922Z,43.96
2018-05-24T11:47:46.495Z,43.99
2018-05-24T11:48:52.371Z,44.06
2018-05-24T11:50:00.492Z,44.28
2018-05-24T11:51:07.072Z,44.51
2018-05-24T11:52:13.631Z,44.47
2018-05-24T11:53:19.755Z,44.42
2018-05-24T11:54:26.655Z,44.37
2018-05-24T11:55:34.015Z,44.49
2018-05-24T11:56:39.819Z,44.31
2018-05-24T11:57:45.606Z,44.36
2018-05-24T11:58:52.597Z,44.54
2018-05-24T11:59:58.368Z,44.49
2018-05-24T12:01:04.127Z,44.60
2018-05-24T12:02:09.920Z,44.58
2018-05-24T12:03:16.592Z,44.63
2018-05-24T12:04:22.383Z,44.15
2018-05-24T12:05:28.164Z,44.02
2018-05-24T12:06:34.720Z,43.98
2018-05-24T12:07:40.516Z,43.95
2018-05-24T12:08:46.314Z,43.71
2018-05-24T12:09:52.668Z,43.65
2018-05-24T12:10:59.420Z,43.82
2018-05-24T12:12:05.263Z,43.96
2018-05-24T12:13:12.543Z,43.92
2018-05-24T12:14:19.091Z,44.05
2018-05-24T12:15:24.964Z,44.03
2018-05-24T12:16:31.480Z,43.96
2018-05-24T12:17:36.906Z,43.65
2018-05-24T12:18:42.688Z,43.59
2018-05-24T12:19:49.216Z,43.57
2018-05-24T12:20:54.985Z,43.49
2018-05-24T12:22:00.779Z,43.36
2018-05-24T12:23:05.872Z,43.26
2018-05-24T12:24:11.657Z,43.01
2018-05-24T12:25:17.424Z,42.92
2018-05-24T12:26:23.188Z,42.73
2018-05-24T12:27:29.709Z,42.61
2018-05-24T12:28:35.463Z,42.62
2018-05-24T12:29:41.263Z,42.58
2018-05-24T12:30:47.019Z,42.32
2018-05-24T12:31:52.782Z,42.49
2018-05-24T12:32:58.546Z,42.42
2018-05-24T12:34:05.072Z,42.21
2018-05-24T12:35:11.166Z,41.89
2018-05-24T12:36:17.152Z,41.94
2018-05-24T12:37:22.932Z,41.83
2018-05-24T12:38:28.686Z,41.89
2018-05-24T12:39:35.248Z,41.97
2018-05-24T12:40:41.020Z,41.95
2018-05-24T12:41:46.868Z,42.03
2018-05-24T12:42:53.031Z,42.00
2018-05-24T12:43:58.800Z,41.95
2018-05-24T12:45:06.193Z,41.71
2018-05-24T12:46:12.019Z,41.49
2018-05-24T12:47:18.012Z,41.54
2018-05-24T12:48:23.819Z,41.67
2018-05-24T12:49:30.389Z,41.65
2018-05-24T12:50:36.566Z,41.55
2018-05-24T12:51:42.392Z,41.39
2018-05-24T12:52:49.243Z,41.23
2018-05-24T12:53:55.163Z,41.25
2018-05-24T12:55:01.047Z,41.19
2018-05-24T12:56:07.621Z,41.21
2018-05-24T12:57:13.399Z,41.31
2018-05-24T12:58:19.179Z,41.31
2018-05-24T12:59:25.730Z,41.04
2018-05-24T13:00:31.511Z,40.97
2018-05-24T13:01:37.238Z,40.86
2018-05-24T13:02:43.760Z,41.09
2018-05-24T13:03:49.557Z,41.18
2018-05-24T13:04:55.317Z,41.28
2018-05-24T13:06:01.087Z,41.12
2018-05-24T13:07:06.892Z,41.18
2018-05-24T13:08:13.484Z,41.28
2018-05-24T13:09:19.292Z,41.34
2018-05-24T13:10:25.113Z,41.33
2018-05-24T13:11:31.716Z,41.58
2018-05-24T13:12:37.597Z,41.70
2018-05-24T13:13:43.508Z,41.74
2018-05-24T13:14:49.301Z,41.54
2018-05-24T13:15:56.064Z,41.44
2018-05-24T13:17:02.613Z,41.32
2018-05-24T13:18:08.587Z,41.26
2018-05-24T13:19:14.435Z,41.15
2018-05-24T13:20:20.963Z,41.07
2018-05-24T13:21:26.720Z,41.13
2018-05-24T13:22:33.481Z,41.25
2018-05-24T13:23:40.048Z,41.32
2018-05-24T13:24:45.839Z,41.24
2018-05-24T13:25:51.604Z,41.09
2018-05-24T13:26:57.367Z,41.05
2018-05-24T13:28:02.892Z,41.08
2018-05-24T13:29:08.786Z,40.93
2018-05-24T13:30:14.552Z,40.77
2018-05-24T13:31:20.307Z,40.89
2018-05-24T13:32:26.076Z,41.05
2018-05-24T13:33:31.871Z,41.00
2018-05-24T13:34:37.752Z,41.00
2018-05-24T13:35:46.067Z,41.05
2018-05-24T13:36:53.601Z,40.79
2018-05-24T13:38:00.445Z,40.57
2018-05-24T13:39:08.309Z,40.58
2018-05-24T13:40:14.251Z,40.52
2018-05-24T13:41:20.913Z,40.57
2018-05-24T13:42:27.469Z,40.57
2018-05-24T13:43:34.081Z,40.64
2018-05-24T13:44:39.857Z,40.90
2018-05-24T13:45:45.622Z,40.79
2018-05-24T13:46:51.367Z,40.45
2018-05-24T13:47:57.146Z,40.48
2018-05-24T13:49:02.891Z,40.36
2018-05-24T13:50:08.651Z,40.65
2018-05-24T13:51:14.428Z,40.62
2018-05-24T13:52:20.468Z,40.53
2018-05-24T13:53:26.245Z,39.98
2018-05-24T13:54:32.779Z,39.69
2018-05-24T13:55:38.562Z,39.78
2018-05-24T13:56:44.343Z,39.68
2018-05-24T13:57:49.779Z,39.80
2018-05-24T13:58:55.553Z,39.79
2018-05-24T14:00:01.308Z,39.71
2018-05-24T14:01:07.090Z,39.70
2018-05-24T14:02:12.874Z,39.71
2018-05-24T14:03:18.646Z,39.55
2018-05-24T14:04:24.412Z,39.54
2018-05-24T14:05:29.832Z,39.54
2018-05-24T14:07:41.383Z,39.60
2018-05-24T14:08:47.929Z,39.70
2018-05-24T14:09:54.464Z,39.62
2018-05-24T14:11:00.226Z,39.63
2018-05-24T14:12:05.998Z,39.84
2018-05-24T14:13:11.801Z,39.79
2018-05-24T14:14:17.582Z,39.85
2018-05-24T14:15:24.119Z,39.92